createdAt,value
2023-03-27T00:00:15.571Z,5.00
2023-03-27T00:01:19.810Z,5.00
2023-03-27T00:02:24.086Z,4.25
2023-03-27T00:03:28.445Z,4.00
2023-03-27T00:04:32.824Z,4.00
2023-03-27T00:05:37.219Z,4.75
2023-03-27T00:06:41.532Z,5.50
2023-03-27T00:07:46.262Z,6.00
2023-03-27T00:08:50.772Z,5.50
2023-03-27T00:09:55.379Z,5.50
2023-03-27T00:10:59.686Z,5.75
2023-03-27T00:12:03.893Z,6.00
2023-03-27T00:13:07.993Z,5.00
2023-03-27T00:14:12.400Z,5.50
2023-03-27T00:15:16.413Z,5.00
2023-03-27T00:16:20.988Z,5.00
2023-03-27T00:17:25.640Z,5.50
2023-03-27T00:18:30.166Z,5.50
2023-03-27T00:19:34.360Z,5.00
2023-03-27T00:20:38.469Z,4.75
2023-03-27T00:21:42.775Z,5.00
2023-03-27T00:22:46.677Z,5.50
2023-03-27T00:23:50.770Z,5.50
2023-03-27T00:24:55.507Z,5.00
2023-03-27T00:25:59.704Z,5.75
2023-03-27T00:27:03.805Z,5.00
2023-03-27T00:28:07.796Z,5.00
2023-03-27T00:29:12.307Z,4.00
2023-03-27T00:30:16.427Z,5.50
2023-03-27T00:31:21.272Z,4.50
2023-03-27T00:32:26.164Z,5.50
2023-03-27T00:33:30.784Z,6.00
2023-03-27T00:34:35.079Z,5.50
2023-03-27T00:35:39.538Z,5.25
2023-03-27T00:36:43.922Z,4.50
2023-03-27T00:37:54.853Z,5.00
2023-03-27T00:38:59.190Z,4.75
2023-03-27T00:40:03.481Z,3.75
2023-03-27T00:41:08.018Z,4.00
2023-03-27T00:42:12.152Z,3.75
2023-03-27T00:43:16.609Z,5.00
2023-03-27T00:44:21.223Z,5.75
2023-03-27T00:45:25.419Z,5.00
2023-03-27T00:46:29.966Z,6.50
2023-03-27T00:47:34.396Z,6.00
2023-03-27T00:48:38.661Z,5.50
2023-03-27T00:49:43.189Z,6.00
2023-03-27T00:50:47.894Z,5.25
2023-03-27T00:51:52.607Z,5.25
2023-03-27T00:52:57.126Z,4.50
2023-03-27T00:54:01.120Z,4.00
2023-03-27T00:55:05.273Z,5.00
2023-03-27T00:56:09.448Z,4.75
2023-03-27T00:57:14.116Z,4.75
2023-03-27T00:58:18.170Z,4.50
2023-03-27T00:59:22.669Z,4.25
2023-03-27T01:00:26.682Z,4.00
2023-03-27T01:01:31.518Z,7.00
2023-03-27T01:02:35.740Z,7.00
2023-03-27T01:03:40.189Z,4.00
2023-03-27T01:04:44.620Z,3.50
2023-03-27T01:05:50.765Z,4.00
2023-03-27T01:06:55.276Z,4.50
2023-03-27T01:08:00.497Z,4.75
2023-03-27T01:09:05.138Z,4.00
2023-03-27T01:10:09.740Z,4.00
2023-03-27T01:11:14.153Z,3.50
2023-03-27T01:12:19.075Z,3.50
2023-03-27T01:13:23.489Z,3.75
2023-03-27T01:14:28.412Z,6.50
2023-03-27T01:15:32.335Z,6.75
2023-03-27T01:16:36.305Z,4.75
2023-03-27T01:17:40.373Z,4.50
2023-03-27T01:18:44.619Z,4.50
2023-03-27T01:19:49.056Z,4.50
2023-03-27T01:20:53.550Z,4.00
2023-03-27T01:21:57.433Z,5.00
2023-03-27T01:23:01.648Z,4.25
2023-03-27T01:24:06.566Z,4.50
2023-03-27T01:25:10.871Z,4.00
2023-03-27T01:26:36.195Z,4.50
2023-03-27T01:27:27.677Z,5.25
2023-03-27T01:28:31.904Z,5.00
2023-03-27T01:29:36.604Z,6.75
2023-03-27T01:30:40.914Z,6.25
2023-03-27T01:31:45.382Z,6.50
2023-03-27T01:32:49.743Z,8.00
2023-03-27T01:33:54.139Z,10.00
2023-03-27T01:35:01.197Z,8.00
2023-03-27T01:36:03.943Z,4.50
2023-03-27T01:37:08.721Z,7.00
2023-03-27T01:38:12.819Z,8.50
2023-03-27T01:39:17.333Z,8.00
2023-03-27T01:40:21.529Z,9.00
2023-03-27T01:41:25.648Z,6.50
2023-03-27T01:42:30.691Z,6.50
2023-03-27T01:43:34.775Z,6.50
2023-03-27T01:44:44.021Z,6.25
2023-03-27T01:45:45.027Z,6.25
2023-03-27T01:46:49.454Z,7.50
2023-03-27T01:47:54.109Z,8.75
2023-03-27T01:48:58.571Z,9.00
2023-03-27T01:50:06.703Z,6.75
2023-03-27T01:51:11.280Z,5.00
2023-03-27T01:52:16.191Z,5.50
2023-03-27T01:53:20.621Z,5.75
2023-03-27T01:54:26.011Z,7.75
2023-03-27T01:55:30.256Z,6.25
2023-03-27T01:56:34.905Z,10.50
2023-03-27T01:57:49.279Z,10.00
2023-03-27T01:58:45.319Z,5.00
2023-03-27T01:59:50.238Z,4.50
2023-03-27T02:00:54.823Z,5.00
2023-03-27T02:01:59.084Z,5.75
2023-03-27T02:03:03.203Z,5.00
2023-03-27T02:04:07.795Z,5.25
2023-03-27T02:05:12.233Z,4.50
2023-03-27T02:06:16.811Z,4.50
2023-03-27T02:07:21.227Z,4.25
2023-03-27T02:08:25.198Z,5.00
2023-03-27T02:09:29.431Z,5.50
2023-03-27T02:10:33.838Z,5.00
2023-03-27T02:11:38.553Z,5.00
2023-03-27T02:12:42.658Z,5.25
2023-03-27T02:13:46.965Z,5.00
2023-03-27T02:14:50.866Z,5.00
2023-03-27T02:15:57.355Z,4.50
2023-03-27T02:17:01.323Z,4.00
2023-03-27T02:18:05.824Z,5.50
2023-03-27T02:19:09.636Z,6.50
2023-03-27T02:20:13.638Z,6.00
2023-03-27T02:21:17.945Z,6.75
2023-03-27T02:22:25.460Z,6.00
2023-03-27T02:23:30.495Z,5.50
2023-03-27T02:24:34.963Z,6.50
2023-03-27T02:25:39.074Z,5.50
2023-03-27T02:26:43.381Z,4.50
2023-03-27T02:27:47.702Z,4.00
2023-03-27T02:28:51.689Z,5.00
2023-03-27T02:29:56.000Z,5.00
2023-03-27T02:31:06.192Z,5.00
2023-03-27T02:32:05.819Z,4.25
2023-03-27T02:33:10.202Z,4.25
2023-03-27T02:34:14.762Z,3.00
2023-03-27T02:35:19.068Z,3.00
2023-03-27T02:36:23.688Z,4.00
2023-03-27T02:37:32.400Z,4.00
2023-03-27T02:38:33.435Z,3.00
2023-03-27T02:39:38.063Z,6.25
2023-03-27T02:40:42.352Z,7.50
2023-03-27T02:41:48.563Z,3.00
2023-03-27T02:42:52.920Z,4.50
2023-03-27T02:43:57.134Z,4.50
2023-03-27T02:45:01.446Z,5.00
2023-03-27T02:46:05.701Z,4.75
2023-03-27T02:47:09.847Z,4.00
2023-03-27T02:48:14.156Z,7.50
2023-03-27T02:49:18.261Z,8.00
2023-03-27T02:50:22.581Z,7.00
2023-03-27T02:51:27.239Z,6.50
2023-03-27T02:52:31.714Z,4.50
2023-03-27T02:53:36.113Z,4.50
2023-03-27T02:54:40.523Z,3.50
2023-03-27T02:55:44.931Z,4.00
2023-03-27T02:56:49.287Z,4.75
2023-03-27T02:57:53.264Z,5.00
2023-03-27T02:58:57.351Z,3.75
2023-03-27T03:00:01.450Z,4.50
2023-03-27T03:01:05.472Z,2.50
2023-03-27T03:02:09.395Z,3.75
2023-03-27T03:03:13.432Z,4.00
2023-03-27T03:04:17.552Z,4.75
2023-03-27T03:05:21.520Z,4.00
2023-03-27T03:06:25.463Z,3.25
2023-03-27T03:07:29.449Z,4.00
2023-03-27T03:08:33.455Z,6.75
2023-03-27T03:09:40.570Z,7.00
2023-03-27T03:10:42.784Z,7.25
2023-03-27T03:11:47.092Z,5.25
2023-03-27T03:12:51.610Z,4.00
2023-03-27T03:13:56.122Z,4.50
2023-03-27T03:15:00.326Z,3.00
2023-03-27T03:16:04.838Z,3.00
2023-03-27T03:17:09.558Z,4.00
2023-03-27T03:18:13.667Z,4.50
2023-03-27T03:19:17.868Z,5.00
2023-03-27T03:20:22.504Z,5.00
2023-03-27T03:21:26.586Z,4.75
2023-03-27T03:22:30.894Z,4.00
2023-03-27T03:23:35.206Z,3.50
2023-03-27T03:24:41.463Z,4.00
2023-03-27T03:25:48.528Z,4.00
2023-03-27T03:26:52.739Z,3.50
2023-03-27T03:27:57.028Z,4.00
2023-03-27T03:29:01.678Z,3.75
2023-03-27T03:30:06.790Z,4.50
2023-03-27T03:31:11.170Z,5.00
2023-03-27T03:32:15.603Z,4.50
2023-03-27T03:33:20.146Z,5.00
2023-03-27T03:34:24.541Z,5.50
2023-03-27T03:35:28.669Z,4.50
2023-03-27T03:36:35.213Z,5.25
2023-03-27T03:37:39.804Z,5.00
2023-03-27T03:38:43.921Z,5.25
2023-03-27T03:39:47.818Z,5.00
2023-03-27T03:40:51.809Z,4.00
2023-03-27T03:41:55.916Z,5.00
2023-03-27T03:43:00.223Z,4.50
2023-03-27T03:44:04.240Z,4.00
2023-03-27T03:45:08.224Z,4.25
2023-03-27T03:46:12.255Z,6.00
2023-03-27T03:47:16.237Z,6.50
2023-03-27T03:48:20.229Z,4.50
2023-03-27T03:49:24.433Z,4.00
2023-03-27T03:50:28.641Z,4.50
2023-03-27T03:51:33.971Z,4.50
2023-03-27T03:52:37.835Z,4.75
2023-03-27T03:53:42.693Z,5.00
2023-03-27T03:54:47.032Z,4.50
2023-03-27T03:55:51.213Z,5.00
2023-03-27T03:56:55.747Z,4.50
2023-03-27T03:58:00.331Z,5.75
2023-03-27T03:59:04.667Z,5.50
2023-03-27T04:00:09.208Z,5.00
2023-03-27T04:01:13.258Z,5.00
2023-03-27T04:02:17.873Z,4.75
2023-03-27T04:03:22.266Z,4.50
2023-03-27T04:04:26.609Z,5.00
2023-03-27T04:05:30.795Z,5.00
2023-03-27T04:06:35.216Z,4.75
2023-03-27T04:07:39.407Z,4.50
2023-03-27T04:08:44.237Z,5.00
2023-03-27T04:09:48.539Z,5.50
2023-03-27T04:10:52.851Z,4.00
2023-03-27T04:11:57.155Z,4.50
2023-03-27T04:13:01.516Z,3.50
2023-03-27T04:14:05.773Z,4.00
2023-03-27T04:15:10.204Z,5.50
2023-03-27T04:16:14.662Z,5.00
2023-03-27T04:17:18.838Z,5.50
2023-03-27T04:18:23.563Z,5.75
2023-03-27T04:19:28.232Z,5.50
2023-03-27T04:20:32.652Z,6.50
2023-03-27T04:21:36.764Z,6.00
2023-03-27T04:22:41.260Z,4.00
2023-03-27T04:23:47.072Z,6.25
2023-03-27T04:24:51.420Z,5.75
2023-03-27T04:25:55.533Z,4.50
2023-03-27T04:26:59.823Z,6.75
2023-03-27T04:28:03.933Z,8.75
2023-03-27T04:29:07.939Z,6.00
2023-03-27T04:30:12.447Z,6.00
2023-03-27T04:31:17.026Z,5.50
2023-03-27T04:32:21.697Z,5.00
2023-03-27T04:33:25.842Z,4.50
2023-03-27T04:34:30.805Z,4.50
2023-03-27T04:35:35.051Z,5.50
2023-03-27T04:36:41.987Z,8.25
2023-03-27T04:37:46.602Z,6.75
2023-03-27T04:38:50.599Z,5.50
2023-03-27T04:39:54.813Z,6.50
2023-03-27T04:40:59.030Z,5.00
2023-03-27T04:42:03.432Z,5.00
2023-03-27T04:43:07.744Z,4.75
2023-03-27T04:44:12.368Z,5.00
2023-03-27T04:45:16.679Z,6.00
2023-03-27T04:46:21.414Z,6.50
2023-03-27T04:47:25.704Z,6.50
2023-03-27T04:48:30.099Z,5.25
2023-03-27T04:49:34.203Z,5.00
2023-03-27T04:50:40.314Z,5.00
2023-03-27T04:51:43.736Z,4.50
2023-03-27T04:52:50.644Z,5.00
2023-03-27T04:53:55.924Z,4.75
2023-03-27T04:55:01.244Z,6.00
2023-03-27T04:58:38.977Z,4.50
2023-03-27T04:59:46.311Z,4.50
2023-03-27T05:00:51.525Z,5.50
2023-03-27T05:01:55.997Z,4.50
2023-03-27T05:03:00.280Z,3.25
2023-03-27T05:04:04.784Z,3.50
2023-03-27T05:05:09.122Z,4.00
2023-03-27T05:06:14.360Z,4.50
2023-03-27T05:07:18.468Z,3.50
2023-03-27T05:08:22.780Z,4.50
2023-03-27T05:09:26.979Z,5.00
2023-03-27T05:10:31.279Z,4.50
2023-03-27T05:11:35.480Z,3.50
2023-03-27T05:12:39.998Z,4.00
2023-03-27T05:13:44.221Z,4.00
2023-03-27T05:14:48.658Z,4.00
2023-03-27T05:15:52.821Z,5.00
2023-03-27T05:16:58.745Z,6.25
2023-03-27T05:18:02.615Z,5.00
2023-03-27T05:19:06.764Z,4.50
2023-03-27T05:20:11.284Z,5.00
2023-03-27T05:21:15.485Z,5.00
2023-03-27T05:22:20.103Z,6.00
2023-03-27T05:23:24.413Z,4.50
2023-03-27T05:24:28.822Z,4.00
2023-03-27T05:25:33.127Z,3.50
2023-03-27T05:26:38.539Z,4.50
2023-03-27T05:27:43.036Z,4.50
2023-03-27T05:28:47.483Z,6.00
2023-03-27T05:29:51.891Z,6.00
2023-03-27T05:30:56.252Z,5.25
2023-03-27T05:32:01.392Z,5.75
2023-03-27T05:33:05.496Z,5.75
2023-03-27T05:34:09.458Z,5.25
2023-03-27T05:35:13.751Z,5.50
2023-03-27T05:36:17.958Z,5.50
2023-03-27T05:37:22.058Z,5.00
2023-03-27T05:38:26.140Z,4.50
2023-03-27T05:39:30.271Z,4.75
2023-03-27T05:40:34.178Z,4.50
2023-03-27T05:41:38.373Z,4.00
2023-03-27T05:42:42.366Z,4.25
2023-03-27T05:43:46.366Z,5.25
2023-03-27T05:44:50.572Z,5.00
2023-03-27T05:45:54.965Z,5.00
2023-03-27T05:46:59.008Z,6.00
2023-03-27T05:48:03.040Z,6.00
2023-03-27T05:49:07.091Z,6.00
2023-03-27T05:50:11.202Z,6.75
2023-03-27T05:51:15.501Z,7.50
2023-03-27T05:52:19.525Z,5.50
2023-03-27T05:53:28.233Z,4.50
2023-03-27T05:54:28.727Z,4.75
2023-03-27T05:55:32.837Z,4.50
2023-03-27T05:56:36.872Z,4.00
2023-03-27T05:57:41.158Z,4.00
2023-03-27T05:58:45.242Z,4.50
2023-03-27T05:59:49.563Z,4.75
2023-03-27T06:00:53.775Z,5.50
2023-03-27T06:01:57.659Z,3.50
2023-03-27T06:03:01.805Z,4.00
2023-03-27T06:04:06.152Z,4.00
2023-03-27T06:05:10.279Z,3.50
2023-03-27T06:06:16.581Z,4.00
2023-03-27T06:07:21.175Z,4.25
2023-03-27T06:08:25.892Z,4.00
2023-03-27T06:09:30.589Z,4.50
2023-03-27T06:10:35.303Z,3.75
2023-03-27T06:11:40.038Z,4.00
2023-03-27T06:12:44.139Z,4.75
2023-03-27T06:13:48.535Z,5.50
2023-03-27T06:14:53.162Z,5.25
2023-03-27T06:15:57.798Z,4.00
2023-03-27T06:17:02.282Z,3.50
2023-03-27T06:18:07.423Z,4.00
2023-03-27T06:19:11.631Z,4.25
2023-03-27T06:20:15.992Z,4.75
2023-03-27T06:21:20.022Z,4.50
2023-03-27T06:22:24.035Z,3.50
2023-03-27T06:23:28.158Z,4.50
2023-03-27T06:24:32.248Z,5.00
2023-03-27T06:25:36.346Z,4.50
2023-03-27T06:26:40.440Z,4.50
2023-03-27T06:27:44.342Z,4.50
2023-03-27T06:28:48.553Z,3.50
2023-03-27T06:29:52.650Z,4.25
2023-03-27T06:30:56.782Z,4.00
2023-03-27T06:32:01.105Z,4.00
2023-03-27T06:33:05.051Z,4.00
2023-03-27T06:34:08.858Z,5.00
2023-03-27T06:35:16.240Z,5.00
2023-03-27T06:36:20.697Z,4.00
2023-03-27T06:37:24.854Z,4.50
2023-03-27T06:38:29.060Z,5.00
2023-03-27T06:39:33.379Z,5.25
2023-03-27T06:40:37.782Z,5.00
2023-03-27T06:41:42.190Z,4.50
2023-03-27T06:42:46.524Z,4.75
2023-03-27T06:43:50.726Z,5.50
2023-03-27T06:44:54.814Z,4.50
2023-03-27T06:45:59.250Z,6.00
2023-03-27T06:47:03.665Z,6.00
2023-03-27T06:48:15.408Z,6.00
2023-03-27T06:49:13.170Z,6.00
2023-03-27T06:50:17.800Z,6.00
2023-03-27T06:51:22.298Z,4.50
2023-03-27T06:52:29.785Z,4.50
2023-03-27T06:53:37.318Z,6.00
2023-03-27T06:54:39.729Z,5.50
2023-03-27T06:55:44.049Z,4.50
2023-03-27T06:56:48.094Z,5.50
2023-03-27T06:57:53.182Z,6.00
2023-03-27T06:58:57.401Z,4.50
2023-03-27T07:00:02.456Z,3.00
2023-03-27T07:01:06.395Z,5.50
2023-03-27T07:02:10.430Z,6.50
2023-03-27T07:03:14.621Z,6.00
2023-03-27T07:04:18.838Z,5.50
2023-03-27T07:05:22.852Z,6.00
2023-03-27T07:06:26.913Z,6.00
2023-03-27T07:07:30.816Z,5.00
2023-03-27T07:08:34.703Z,4.75
2023-03-27T07:09:40.061Z,6.00
2023-03-27T07:10:43.839Z,5.50
2023-03-27T07:11:47.627Z,5.50
2023-03-27T07:12:51.630Z,5.00
2023-03-27T07:13:56.023Z,4.50
2023-03-27T07:15:00.043Z,6.00
2023-03-27T07:16:04.016Z,5.50
2023-03-27T07:17:09.508Z,5.50
2023-03-27T07:18:13.112Z,6.50
2023-03-27T07:19:17.689Z,5.00
2023-03-27T07:20:21.793Z,5.50
2023-03-27T07:21:26.201Z,5.00
2023-03-27T07:22:30.724Z,4.50
2023-03-27T07:23:34.709Z,5.00
2023-03-27T07:24:39.125Z,5.50
2023-03-27T07:25:43.875Z,5.00
2023-03-27T07:26:47.941Z,4.50
2023-03-27T07:27:53.068Z,5.50
2023-03-27T07:28:59.571Z,6.00
2023-03-27T07:30:03.036Z,6.50
2023-03-27T07:31:13.680Z,4.75
2023-03-27T07:32:15.227Z,6.00
2023-03-27T07:33:18.175Z,5.50
2023-03-27T07:34:22.461Z,5.50
2023-03-27T07:35:26.851Z,5.50
2023-03-27T07:36:34.625Z,5.00
2023-03-27T07:37:42.091Z,5.50
2023-03-27T07:38:46.393Z,5.50
2023-03-27T07:39:54.705Z,5.50
2023-03-27T07:40:58.906Z,5.50
2023-03-27T07:42:03.223Z,5.00
2023-03-27T07:43:07.732Z,5.00
2023-03-27T07:44:11.932Z,5.50
2023-03-27T07:45:16.450Z,5.00
2023-03-27T07:46:21.093Z,4.50
2023-03-27T07:47:25.317Z,5.00
2023-03-27T07:48:29.461Z,5.25
2023-03-27T07:49:39.408Z,6.50
2023-03-27T07:50:39.197Z,6.00
2023-03-27T07:51:42.909Z,5.50
2023-03-27T07:52:48.484Z,5.00
2023-03-27T07:53:52.448Z,4.00
2023-03-27T07:54:56.661Z,4.50
2023-03-27T07:56:00.470Z,4.50
2023-03-27T07:57:04.578Z,5.00
2023-03-27T07:58:08.936Z,6.00
2023-03-27T07:59:12.873Z,6.00
2023-03-27T08:00:17.918Z,5.50
2023-03-27T08:01:21.794Z,5.00
2023-03-27T08:02:26.412Z,6.00
2023-03-27T08:03:30.609Z,5.50
2023-03-27T08:04:34.893Z,6.00
2023-03-27T08:05:39.531Z,5.20
2023-03-27T08:06:43.633Z,4.50
2023-03-27T08:07:47.636Z,3.75
2023-03-27T08:08:51.739Z,4.50
2023-03-27T08:09:55.853Z,5.50
2023-03-27T08:11:01.485Z,6.00
2023-03-27T08:12:05.099Z,5.75
2023-03-27T08:13:09.389Z,4.50
2023-03-27T08:14:13.628Z,6.00
2023-03-27T08:15:17.528Z,5.25
2023-03-27T08:16:21.529Z,6.50
2023-03-27T08:17:25.754Z,5.50
2023-03-27T08:18:30.003Z,5.00
2023-03-27T08:19:34.026Z,5.00
2023-03-27T08:20:38.013Z,5.25
2023-03-27T08:21:43.172Z,6.00
2023-03-27T08:22:47.641Z,5.50
2023-03-27T08:23:51.962Z,5.50
2023-03-27T08:24:57.497Z,6.00
2023-03-27T08:26:01.955Z,5.75
2023-03-27T08:27:06.207Z,6.00
2023-03-27T08:28:10.418Z,6.00
2023-03-27T08:29:14.929Z,4.75
2023-03-27T08:30:19.556Z,6.50
2023-03-27T08:31:23.904Z,6.00
2023-03-27T08:32:28.167Z,4.50
2023-03-27T08:33:32.269Z,5.00
2023-03-27T08:34:36.677Z,5.00
2023-03-27T08:35:40.692Z,4.50
2023-03-27T08:36:45.090Z,4.50
2023-03-27T08:37:49.810Z,5.00
2023-03-27T08:38:54.006Z,5.00
2023-03-27T08:39:58.007Z,4.50
2023-03-27T08:41:02.121Z,5.00
2023-03-27T08:42:06.527Z,4.50
2023-03-27T08:43:10.531Z,4.50
2023-03-27T08:44:20.578Z,5.25
2023-03-27T08:45:24.486Z,4.50
2023-03-27T08:46:28.736Z,3.25
2023-03-27T08:47:32.808Z,3.50
2023-03-27T08:48:37.193Z,4.75
2023-03-27T08:49:41.418Z,5.50
2023-03-27T08:50:46.010Z,5.50
2023-03-27T08:51:50.211Z,5.25
2023-03-27T08:52:54.729Z,5.00
2023-03-27T08:53:59.136Z,5.00
2023-03-27T08:55:03.460Z,4.50
2023-03-27T08:56:07.982Z,3.50
2023-03-27T08:57:12.188Z,5.00
2023-03-27T08:58:16.788Z,4.50
2023-03-27T08:59:21.314Z,4.00
2023-03-27T09:00:25.520Z,4.75
2023-03-27T09:01:29.762Z,4.00
2023-03-27T09:02:33.996Z,4.00
2023-03-27T09:03:38.514Z,5.00
2023-03-27T09:04:43.262Z,5.00
2023-03-27T09:05:49.070Z,5.00
2023-03-27T09:06:52.892Z,4.75
2023-03-27T09:07:58.143Z,5.00
2023-03-27T09:09:02.832Z,4.50
2023-03-27T09:10:06.752Z,5.00
2023-03-27T09:11:10.835Z,4.75
2023-03-27T09:12:14.839Z,4.50
2023-03-27T09:13:19.164Z,4.75
2023-03-27T09:14:27.815Z,5.00
2023-03-27T09:15:31.660Z,5.00
2023-03-27T09:16:35.964Z,4.75
2023-03-27T09:17:39.883Z,5.00
2023-03-27T09:18:43.759Z,4.75
2023-03-27T09:19:47.762Z,3.50
2023-03-27T09:20:51.762Z,5.00
2023-03-27T09:21:55.774Z,4.25
2023-03-27T09:23:00.901Z,4.00
2023-03-27T09:24:05.500Z,3.50
2023-03-27T09:25:09.711Z,3.50
2023-03-27T09:26:14.030Z,4.00
2023-03-27T09:27:18.430Z,4.00
2023-03-27T09:28:22.752Z,6.00
2023-03-27T09:29:27.043Z,5.25
2023-03-27T09:30:31.567Z,4.50
2023-03-27T09:31:37.766Z,5.00
2023-03-27T09:32:41.897Z,4.50
2023-03-27T09:33:46.327Z,4.00
2023-03-27T09:34:50.274Z,4.50
2023-03-27T09:35:55.139Z,4.50
2023-03-27T09:36:59.752Z,4.00
2023-03-27T09:38:07.247Z,5.00
2023-03-27T09:39:11.372Z,4.25
2023-03-27T09:40:15.656Z,3.50
2023-03-27T09:41:20.079Z,4.00
2023-03-27T09:42:24.277Z,3.75
2023-03-27T09:43:28.684Z,4.50
2023-03-27T09:44:32.993Z,4.00
2023-03-27T09:45:37.305Z,4.00
2023-03-27T09:46:41.637Z,4.50
2023-03-27T09:47:45.858Z,4.50
2023-03-27T09:48:50.251Z,4.50
2023-03-27T09:49:54.634Z,5.00
2023-03-27T09:50:59.008Z,5.00
2023-03-27T09:52:02.991Z,4.50
2023-03-27T09:53:07.181Z,5.00
2023-03-27T09:54:11.568Z,5.50
2023-03-27T09:55:15.885Z,5.00
2023-03-27T09:56:19.937Z,4.75
2023-03-27T09:57:24.090Z,4.50
2023-03-27T09:58:28.249Z,5.50
2023-03-27T09:59:32.803Z,4.00
2023-03-27T10:00:37.137Z,4.50
2023-03-27T10:01:41.314Z,4.25
2023-03-27T10:02:45.451Z,5.00
2023-03-27T10:03:49.682Z,5.00
2023-03-27T10:04:54.129Z,4.50
2023-03-27T10:05:58.352Z,4.75
2023-03-27T10:07:02.567Z,4.75
2023-03-27T10:08:07.394Z,3.75
2023-03-27T10:09:11.672Z,4.00
2023-03-27T10:10:16.047Z,4.50
2023-03-27T10:11:20.324Z,4.25
2023-03-27T10:12:24.495Z,4.00
2023-03-27T10:13:28.637Z,5.00
2023-03-27T10:14:32.707Z,5.25
2023-03-27T10:15:36.603Z,5.00
2023-03-27T10:16:40.796Z,4.25
2023-03-27T10:17:46.630Z,4.00
2023-03-27T10:18:51.999Z,4.00
2023-03-27T10:19:56.192Z,5.00
2023-03-27T10:21:00.820Z,3.75
2023-03-27T10:22:05.043Z,4.50
2023-03-27T10:23:09.066Z,5.00
2023-03-27T10:24:13.536Z,5.00
2023-03-27T10:25:17.446Z,4.50
2023-03-27T10:26:21.533Z,4.25
2023-03-27T10:27:25.478Z,4.25
2023-03-27T10:28:29.558Z,5.00
2023-03-27T10:29:33.740Z,4.50
2023-03-27T10:30:37.647Z,4.75
2023-03-27T10:31:41.804Z,5.00
2023-03-27T10:32:45.888Z,5.00
2023-03-27T10:33:50.155Z,4.75
2023-03-27T10:34:54.355Z,4.25
2023-03-27T10:35:58.644Z,4.50
2023-03-27T10:37:02.876Z,3.50
2023-03-27T10:38:07.176Z,3.50
2023-03-27T10:39:11.513Z,5.00
2023-03-27T10:40:15.896Z,5.00
2023-03-27T10:41:28.170Z,4.00
2023-03-27T10:42:25.237Z,5.00
2023-03-27T10:43:30.688Z,5.00
2023-03-27T10:44:35.201Z,4.50
2023-03-27T10:45:40.453Z,3.75
2023-03-27T10:46:44.716Z,3.00
2023-03-27T10:47:49.548Z,4.00
2023-03-27T10:48:54.563Z,4.00
2023-03-27T10:49:58.883Z,4.00
2023-03-27T10:51:02.868Z,4.00
2023-03-27T10:52:07.281Z,3.50
2023-03-27T10:53:11.725Z,3.50
2023-03-27T10:54:17.149Z,4.25
2023-03-27T10:55:21.241Z,4.50
2023-03-27T10:56:25.635Z,5.00
2023-03-27T10:57:29.955Z,4.25
2023-03-27T10:58:34.478Z,4.00
2023-03-27T10:59:41.804Z,4.50
2023-03-27T11:00:43.804Z,4.75
2023-03-27T11:01:50.163Z,4.50
2023-03-27T11:02:54.905Z,4.50
2023-03-27T11:03:59.217Z,4.50
2023-03-27T11:05:03.482Z,4.00
2023-03-27T11:06:07.698Z,5.00
2023-03-27T11:07:11.790Z,5.00
2023-03-27T11:08:16.205Z,5.00
2023-03-27T11:09:20.626Z,4.50
2023-03-27T11:10:24.918Z,5.67
2023-03-27T11:11:29.057Z,6.00
2023-03-27T11:12:33.191Z,5.00
2023-03-27T11:13:40.611Z,5.00
2023-03-27T11:14:44.716Z,4.50
2023-03-27T11:15:48.507Z,6.00
2023-03-27T11:16:52.360Z,5.00
2023-03-27T11:17:56.586Z,4.50
2023-03-27T11:19:00.945Z,6.00
2023-03-27T11:20:04.934Z,5.25
2023-03-27T11:21:08.923Z,5.00
2023-03-27T11:22:12.925Z,5.00
2023-03-27T11:23:19.076Z,5.00
2023-03-27T11:24:22.773Z,5.50
2023-03-27T11:25:26.784Z,5.25
2023-03-27T11:26:30.683Z,4.00
2023-03-27T11:27:34.474Z,4.50
2023-03-27T11:28:38.775Z,5.00
2023-03-27T11:29:42.673Z,5.50
2023-03-27T11:30:46.886Z,4.50
2023-03-27T11:31:50.927Z,4.75
2023-03-27T11:32:56.497Z,5.00
2023-03-27T11:34:00.530Z,4.50
2023-03-27T11:35:04.612Z,4.50
2023-03-27T11:36:08.759Z,4.75
2023-03-27T11:37:12.928Z,4.00
2023-03-27T11:38:17.245Z,4.50
2023-03-27T11:39:21.254Z,5.00
2023-03-27T11:40:25.956Z,5.00
2023-03-27T11:41:30.161Z,5.00
2023-03-27T11:42:34.681Z,5.00
2023-03-27T11:43:38.784Z,5.00
2023-03-27T11:44:42.912Z,5.00
2023-03-27T11:45:46.991Z,5.50
2023-03-27T11:46:51.319Z,5.50
2023-03-27T11:47:55.502Z,4.50
2023-03-27T11:48:59.403Z,3.75
2023-03-27T11:50:03.511Z,5.00
2023-03-27T11:51:07.623Z,5.75
2023-03-27T11:52:11.621Z,4.25
2023-03-27T11:53:15.934Z,4.50
2023-03-27T11:54:19.996Z,5.00
2023-03-27T11:55:24.128Z,5.50
2023-03-27T11:56:28.352Z,4.50
2023-03-27T11:57:32.771Z,4.25
2023-03-27T11:58:37.055Z,3.50
2023-03-27T11:59:41.278Z,3.50
2023-03-27T12:00:50.872Z,4.50
2023-03-27T12:01:54.941Z,4.00
2023-03-27T12:02:59.150Z,4.00
2023-03-27T12:04:04.019Z,4.00
2023-03-27T12:05:08.241Z,4.50
2023-03-27T12:06:12.326Z,3.75
2023-03-27T12:07:23.526Z,5.00
2023-03-27T12:08:24.530Z,5.50
2023-03-27T12:09:29.852Z,4.50
2023-03-27T12:10:33.245Z,5.00
2023-03-27T12:11:37.247Z,5.50
2023-03-27T12:12:41.458Z,4.50
2023-03-27T12:13:49.851Z,3.50
2023-03-27T12:14:50.486Z,3.25
2023-03-27T12:15:54.391Z,4.00
2023-03-27T12:16:58.430Z,4.25
2023-03-27T12:18:02.552Z,4.25
2023-03-27T12:19:17.294Z,4.25
2023-03-27T12:20:11.724Z,5.00
2023-03-27T12:21:15.596Z,5.50
2023-03-27T12:22:23.985Z,5.00
2023-03-27T12:23:24.767Z,6.00
2023-03-27T12:24:28.869Z,6.00
2023-03-27T12:25:34.201Z,5.00
2023-03-27T12:26:38.434Z,3.00
2023-03-27T12:27:42.794Z,3.75
2023-03-27T12:28:47.122Z,4.00
2023-03-27T12:29:51.205Z,4.50
2023-03-27T12:30:55.549Z,4.50
2023-03-27T12:32:00.016Z,4.25
2023-03-27T12:33:04.483Z,4.00
2023-03-27T12:34:09.949Z,4.50
2023-03-27T12:35:13.482Z,4.75
2023-03-27T12:36:17.266Z,4.00
2023-03-27T12:37:21.158Z,3.25
2023-03-27T12:38:25.266Z,4.00
2023-03-27T12:39:29.174Z,2.50
2023-03-27T12:40:33.375Z,4.25
2023-03-27T12:41:37.576Z,4.00
2023-03-27T12:42:44.244Z,5.50
2023-03-27T12:43:46.850Z,5.00
2023-03-27T12:44:50.818Z,4.50
2023-03-27T12:45:54.731Z,4.00
2023-03-27T12:47:00.535Z,4.00
2023-03-27T12:48:04.281Z,4.00
2023-03-27T12:49:08.182Z,3.25
2023-03-27T12:50:12.032Z,5.00
2023-03-27T12:51:16.250Z,6.00
2023-03-27T12:52:20.081Z,5.50
2023-03-27T12:53:23.832Z,5.00
2023-03-27T12:54:27.833Z,4.50
2023-03-27T12:55:31.858Z,3.25
2023-03-27T12:56:35.912Z,4.75
2023-03-27T12:57:40.081Z,4.00
2023-03-27T12:58:44.205Z,5.25
2023-03-27T12:59:48.044Z,4.00
2023-03-27T13:00:52.151Z,4.00
2023-03-27T13:01:56.083Z,4.50
2023-03-27T13:03:00.316Z,3.25
2023-03-27T13:04:04.376Z,4.50
2023-03-27T13:05:16.452Z,5.00
2023-03-27T13:06:13.293Z,5.00
2023-03-27T13:07:17.093Z,4.50
2023-03-27T13:08:21.139Z,4.75
2023-03-27T13:09:25.095Z,5.50
2023-03-27T13:10:29.098Z,5.00
2023-03-27T13:11:33.574Z,4.50
2023-03-27T13:12:37.526Z,3.75
2023-03-27T13:13:41.515Z,4.00
2023-03-27T13:14:45.400Z,4.00
2023-03-27T13:15:49.445Z,5.00
2023-03-27T13:16:53.520Z,4.00
2023-03-27T13:17:57.633Z,4.00
2023-03-27T13:19:01.915Z,5.25
2023-03-27T13:20:05.942Z,4.50
2023-03-27T13:21:09.930Z,3.50
2023-03-27T13:22:14.062Z,4.00
2023-03-27T13:23:18.333Z,4.00
2023-03-27T13:24:22.639Z,4.00
2023-03-27T13:25:26.649Z,4.00
2023-03-27T13:26:30.749Z,4.50
2023-03-27T13:27:34.843Z,4.00
2023-03-27T13:28:39.058Z,4.50
2023-03-27T13:29:43.157Z,5.50
2023-03-27T13:30:47.830Z,6.00
2023-03-27T13:31:51.900Z,5.50
2023-03-27T13:32:55.841Z,5.25
2023-03-27T13:33:59.681Z,5.00
2023-03-27T13:35:03.790Z,5.00
2023-03-27T13:36:08.229Z,4.50
2023-03-27T13:37:12.015Z,4.75
2023-03-27T13:38:15.661Z,4.75
2023-03-27T13:39:19.594Z,4.00
2023-03-27T13:40:24.816Z,4.50
2023-03-27T13:41:28.903Z,4.00
2023-03-27T13:42:32.805Z,4.00
2023-03-27T13:43:36.612Z,4.50
2023-03-27T13:44:40.501Z,5.75
2023-03-27T13:45:44.804Z,6.75
2023-03-27T13:46:48.538Z,6.50
2023-03-27T13:47:52.999Z,5.00
2023-03-27T13:48:57.130Z,5.00
2023-03-27T13:50:03.804Z,4.75
2023-03-27T13:51:05.943Z,5.00
2023-03-27T13:52:09.737Z,5.25
2023-03-27T13:53:13.950Z,5.00
2023-03-27T13:54:18.261Z,5.25
2023-03-27T13:55:21.964Z,4.00
2023-03-27T13:56:25.736Z,4.50
2023-03-27T13:57:29.537Z,4.00
2023-03-27T13:58:33.769Z,4.50
2023-03-27T13:59:37.769Z,4.50
2023-03-27T14:00:41.653Z,5.50
2023-03-27T14:01:45.883Z,4.50
2023-03-27T14:02:49.886Z,4.00
2023-03-27T14:03:54.465Z,6.00
2023-03-27T14:04:58.157Z,6.25
2023-03-27T14:06:02.649Z,6.00
2023-03-27T14:07:07.089Z,5.00
2023-03-27T14:08:10.987Z,4.50
2023-03-27T14:09:14.876Z,5.00
2023-03-27T14:10:18.992Z,3.75
2023-03-27T14:11:22.909Z,4.50
2023-03-27T14:12:26.783Z,5.00
2023-03-27T14:13:30.683Z,4.50
2023-03-27T14:14:34.696Z,5.00
2023-03-27T14:15:38.885Z,5.00
2023-03-27T14:16:42.937Z,5.00
2023-03-27T14:17:46.811Z,6.00
2023-03-27T14:18:50.685Z,8.00
2023-03-27T14:19:54.389Z,7.75